sensor_id;sensor_type;location;lat;lon;timestamp;temperature;humidity
12761;DHT22;6444;49.742;6.114;2023-08-17T00:01:34;21.40;99.90
12761;DHT22;6444;49.742;6.114;2023-08-17T00:04:00;21.50;99.90
12761;DHT22;6444;49.742;6.114;2023-08-17T00:06:27;21.60;99.90
12761;DHT22;6444;49.742;6.114;2023-08-17T00:08:53;21.70;99.90
12761;DHT22;6444;49.742;6.114;2023-08-17T00:11:20;21.60;99.90
12761;DHT22;6444;49.742;6.114;2023-08-17T00:13:47;21.40;99.90
12761;DHT22;6444;49.742;6.114;2023-08-17T00:16:13;20.60;99.90
12761;DHT22;6444;49.742;6.114;2023-08-17T00:18:40;20.00;99.90
12761;DHT22;6444;49.742;6.114;2023-08-17T00:21:07;20.30;99.90
12761;DHT22;6444;49.742;6.114;2023-08-17T00:23:33;20.30;99.90
12761;DHT22;6444;49.742;6.114;2023-08-17T00:26:00;20.20;99.90
12761;DHT22;6444;49.742;6.114;2023-08-17T00:28:26;19.90;99.90
12761;DHT22;6444;49.742;6.114;2023-08-17T00:30:53;20.20;99.90
12761;DHT22;6444;49.742;6.114;2023-08-17T00:33:20;19.90;99.90
12761;DHT22;6444;49.742;6.114;2023-08-17T00:38:15;19.40;99.90
12761;DHT22;6444;49.742;6.114;2023-08-17T00:40:42;19.40;99.90
12761;DHT22;6444;49.742;6.114;2023-08-17T00:43:09;19.50;99.90
12761;DHT22;6444;49.742;6.114;2023-08-17T00:45:35;19.70;99.90
12761;DHT22;6444;49.742;6.114;2023-08-17T00:48:02;19.90;99.90
12761;DHT22;6444;49.742;6.114;2023-08-17T00:50:29;20.10;99.90
12761;DHT22;6444;49.742;6.114;2023-08-17T00:52:55;20.10;99.90
12761;DHT22;6444;49.742;6.114;2023-08-17T00:55:22;20.50;99.90
12761;DHT22;6444;49.742;6.114;2023-08-17T00:57:49;20.70;99.90
12761;DHT22;6444;49.742;6.114;2023-08-17T01:00:15;20.90;99.90
12761;DHT22;6444;49.742;6.114;2023-08-17T01:02:43;21.30;99.90
12761;DHT22;6444;49.742;6.114;2023-08-17T01:05:09;21.30;99.90
12761;DHT22;6444;49.742;6.114;2023-08-17T01:07:36;21.40;99.90
12761;DHT22;6444;49.742;6.114;2023-08-17T01:10:03;21.60;99.90
12761;DHT22;6444;49.742;6.114;2023-08-17T01:12:30;21.60;99.90
12761;DHT22;6444;49.742;6.114;2023-08-17T01:20:01;21.80;99.90
12761;DHT22;6444;49.742;6.114;2023-08-17T01:22:28;21.80;99.90
12761;DHT22;6444;49.742;6.114;2023-08-17T01:24:55;21.40;99.90
12761;DHT22;6444;49.742;6.114;2023-08-17T01:27:21;20.40;99.90
12761;DHT22;6444;49.742;6.114;2023-08-17T01:29:48;20.00;99.90
12761;DHT22;6444;49.742;6.114;2023-08-17T01:32:30;20.40;99.90
12761;DHT22;6444;49.742;6.114;2023-08-17T01:35:01;20.10;99.90
12761;DHT22;6444;49.742;6.114;2023-08-17T01:37:26;19.80;99.90
12761;DHT22;6444;49.742;6.114;2023-08-17T01:39:52;19.80;99.90
12761;DHT22;6444;49.742;6.114;2023-08-17T01:42:18;19.60;99.90
12761;DHT22;6444;49.742;6.114;2023-08-17T01:44:45;20.00;99.90
12761;DHT22;6444;49.742;6.114;2023-08-17T01:47:11;20.00;99.90
12761;DHT22;6444;49.742;6.114;2023-08-17T01:49:38;20.10;99.90
12761;DHT22;6444;49.742;6.114;2023-08-17T01:52:05;20.60;99.90
12761;DHT22;6444;49.742;6.114;2023-08-17T01:54:31;21.00;99.90
12761;DHT22;6444;49.742;6.114;2023-08-17T01:56:58;21.50;99.90
12761;DHT22;6444;49.742;6.114;2023-08-17T01:59:25;21.60;99.90
12761;DHT22;6444;49.742;6.114;2023-08-17T02:01:52;21.50;99.90
12761;DHT22;6444;49.742;6.114;2023-08-17T02:04:19;21.40;99.90
12761;DHT22;6444;49.742;6.114;2023-08-17T02:06:45;21.60;99.90
12761;DHT22;6444;49.742;6.114;2023-08-17T02:09:12;21.70;99.90
12761;DHT22;6444;49.742;6.114;2023-08-17T02:11:39;21.20;99.90
12761;DHT22;6444;49.742;6.114;2023-08-17T02:14:05;21.00;99.90
12761;DHT22;6444;49.742;6.114;2023-08-17T02:16:32;20.90;99.90
12761;DHT22;6444;49.742;6.114;2023-08-17T02:18:58;21.20;99.90
12761;DHT22;6444;49.742;6.114;2023-08-17T02:21:26;21.60;99.90
12761;DHT22;6444;49.742;6.114;2023-08-17T02:23:52;21.60;99.90
12761;DHT22;6444;49.742;6.114;2023-08-17T02:26:19;21.70;99.90
12761;DHT22;6444;49.742;6.114;2023-08-17T02:28:46;21.80;99.90
12761;DHT22;6444;49.742;6.114;2023-08-17T02:31:12;21.20;99.90
12761;DHT22;6444;49.742;6.114;2023-08-17T02:33:39;20.70;99.90
12761;DHT22;6444;49.742;6.114;2023-08-17T02:36:06;20.40;99.90
12761;DHT22;6444;49.742;6.114;2023-08-17T02:38:33;20.80;99.90
12761;DHT22;6444;49.742;6.114;2023-08-17T02:41:00;20.80;99.90
12761;DHT22;6444;49.742;6.114;2023-08-17T02:43:26;20.10;99.90
12761;DHT22;6444;49.742;6.114;2023-08-17T02:45:53;19.40;99.90
12761;DHT22;6444;49.742;6.114;2023-08-17T02:48:20;19.60;99.90
12761;DHT22;6444;49.742;6.114;2023-08-17T02:50:47;19.70;99.90
12761;DHT22;6444;49.742;6.114;2023-08-17T02:53:14;19.70;99.90
12761;DHT22;6444;49.742;6.114;2023-08-17T02:55:40;19.90;99.90
12761;DHT22;6444;49.742;6.114;2023-08-17T02:58:07;19.90;99.90
12761;DHT22;6444;49.742;6.114;2023-08-17T03:00:34;19.90;99.90
12761;DHT22;6444;49.742;6.114;2023-08-17T03:03:00;19.90;99.90
12761;DHT22;6444;49.742;6.114;2023-08-17T03:05:27;19.80;99.90
12761;DHT22;6444;49.742;6.114;2023-08-17T03:07:53;20.00;99.90
12761;DHT22;6444;49.742;6.114;2023-08-17T03:10:21;20.20;99.90
12761;DHT22;6444;49.742;6.114;2023-08-17T03:12:47;20.10;99.90
12761;DHT22;6444;49.742;6.114;2023-08-17T03:15:14;20.30;99.90
12761;DHT22;6444;49.742;6.114;2023-08-17T03:17:41;20.60;99.90
12761;DHT22;6444;49.742;6.114;2023-08-17T03:20:07;20.70;99.90
12761;DHT22;6444;49.742;6.114;2023-08-17T03:22:35;21.10;99.90
12761;DHT22;6444;49.742;6.114;2023-08-17T03:25:02;21.10;99.90
12761;DHT22;6444;49.742;6.114;2023-08-17T03:27:28;20.90;99.90
12761;DHT22;6444;49.742;6.114;2023-08-17T03:29:55;20.90;99.90
12761;DHT22;6444;49.742;6.114;2023-08-17T03:32:21;20.90;99.90
12761;DHT22;6444;49.742;6.114;2023-08-17T03:34:48;20.90;99.90
12761;DHT22;6444;49.742;6.114;2023-08-17T03:37:15;21.10;99.90
12761;DHT22;6444;49.742;6.114;2023-08-17T03:39:41;21.10;99.90
12761;DHT22;6444;49.742;6.114;2023-08-17T03:42:09;21.50;99.90
12761;DHT22;6444;49.742;6.114;2023-08-17T03:44:35;21.40;99.90
12761;DHT22;6444;49.742;6.114;2023-08-17T03:47:02;21.60;99.90
12761;DHT22;6444;49.742;6.114;2023-08-17T03:49:29;21.70;99.90
12761;DHT22;6444;49.742;6.114;2023-08-17T03:51:55;21.70;99.90
12761;DHT22;6444;49.742;6.114;2023-08-17T03:54:22;21.80;99.90
12761;DHT22;6444;49.742;6.114;2023-08-17T03:56:48;21.90;99.90
12761;DHT22;6444;49.742;6.114;2023-08-17T03:59:15;21.90;99.90
12761;DHT22;6444;49.742;6.114;2023-08-17T04:01:42;21.90;99.90
12761;DHT22;6444;49.742;6.114;2023-08-17T04:04:09;21.90;99.90
12761;DHT22;6444;49.742;6.114;2023-08-17T04:06:36;21.80;99.90
12761;DHT22;6444;49.742;6.114;2023-08-17T04:09:02;21.70;99.90
12761;DHT22;6444;49.742;6.114;2023-08-17T04:11:29;21.40;99.90
12761;DHT22;6444;49.742;6.114;2023-08-17T04:13:56;21.60;99.90
12761;DHT22;6444;49.742;6.114;2023-08-17T04:16:22;21.70;99.90
12761;DHT22;6444;49.742;6.114;2023-08-17T04:18:49;21.70;99.90
12761;DHT22;6444;49.742;6.114;2023-08-17T04:21:16;21.60;99.90
12761;DHT22;6444;49.742;6.114;2023-08-17T04:23:42;21.40;99.90
12761;DHT22;6444;49.742;6.114;2023-08-17T04:26:09;21.60;99.90
12761;DHT22;6444;49.742;6.114;2023-08-17T04:28:36;21.20;99.90
12761;DHT22;6444;49.742;6.114;2023-08-17T04:31:02;21.40;99.90
12761;DHT22;6444;49.742;6.114;2023-08-17T04:33:29;21.60;99.90
12761;DHT22;6444;49.742;6.114;2023-08-17T04:35:55;21.70;99.90
12761;DHT22;6444;49.742;6.114;2023-08-17T04:38:22;21.80;99.90
12761;DHT22;6444;49.742;6.114;2023-08-17T04:40:49;21.80;99.90
12761;DHT22;6444;49.742;6.114;2023-08-17T04:43:15;21.90;99.90
12761;DHT22;6444;49.742;6.114;2023-08-17T04:45:42;22.00;99.90
12761;DHT22;6444;49.742;6.114;2023-08-17T04:48:09;21.90;99.90
12761;DHT22;6444;49.742;6.114;2023-08-17T04:50:35;21.70;99.90
12761;DHT22;6444;49.742;6.114;2023-08-17T04:53:02;21.90;99.90
12761;DHT22;6444;49.742;6.114;2023-08-17T04:55:29;22.00;99.90
12761;DHT22;6444;49.742;6.114;2023-08-17T04:57:56;22.20;99.90
12761;DHT22;6444;49.742;6.114;2023-08-17T05:00:22;22.20;99.90
12761;DHT22;6444;49.742;6.114;2023-08-17T05:02:49;22.20;99.90
12761;DHT22;6444;49.742;6.114;2023-08-17T05:05:16;22.20;99.90
12761;DHT22;6444;49.742;6.114;2023-08-17T05:07:42;22.30;99.90
12761;DHT22;6444;49.742;6.114;2023-08-17T05:10:09;22.40;99.90
12761;DHT22;6444;49.742;6.114;2023-08-17T05:12:36;22.40;99.90
12761;DHT22;6444;49.742;6.114;2023-08-17T05:15:03;22.40;99.90
12761;DHT22;6444;49.742;6.114;2023-08-17T05:17:31;22.20;99.90
12761;DHT22;6444;49.742;6.114;2023-08-17T05:19:57;22.20;99.90
12761;DHT22;6444;49.742;6.114;2023-08-17T05:22:24;22.50;99.90
12761;DHT22;6444;49.742;6.114;2023-08-17T05:24:50;22.70;99.90
12761;DHT22;6444;49.742;6.114;2023-08-17T05:27:17;22.90;99.90
12761;DHT22;6444;49.742;6.114;2023-08-17T05:29:46;23.00;99.90
12761;DHT22;6444;49.742;6.114;2023-08-17T05:32:16;23.10;99.90
12761;DHT22;6444;49.742;6.114;2023-08-17T05:34:43;22.40;99.90
12761;DHT22;6444;49.742;6.114;2023-08-17T05:37:09;22.50;99.90
12761;DHT22;6444;49.742;6.114;2023-08-17T05:39:36;22.70;99.90
12761;DHT22;6444;49.742;6.114;2023-08-17T05:42:03;22.90;99.90
12761;DHT22;6444;49.742;6.114;2023-08-17T05:44:29;23.10;99.90
12761;DHT22;6444;49.742;6.114;2023-08-17T05:46:56;23.00;99.90
12761;DHT22;6444;49.742;6.114;2023-08-17T05:49:22;22.70;99.90
12761;DHT22;6444;49.742;6.114;2023-08-17T05:51:50;21.60;99.90
12761;DHT22;6444;49.742;6.114;2023-08-17T05:54:16;21.50;99.90
12761;DHT22;6444;49.742;6.114;2023-08-17T05:56:43;21.40;99.90
12761;DHT22;6444;49.742;6.114;2023-08-17T05:59:10;21.30;99.90
12761;DHT22;6444;49.742;6.114;2023-08-17T06:01:36;21.80;99.90
12761;DHT22;6444;49.742;6.114;2023-08-17T06:04:03;22.40;99.90
12761;DHT22;6444;49.742;6.114;2023-08-17T06:06:30;22.80;99.90
12761;DHT22;6444;49.742;6.114;2023-08-17T06:08:57;22.70;99.90
12761;DHT22;6444;49.742;6.114;2023-08-17T06:11:25;23.10;99.90
12761;DHT22;6444;49.742;6.114;2023-08-17T06:13:51;23.10;99.90
12761;DHT22;6444;49.742;6.114;2023-08-17T06:16:18;23.40;99.90
12761;DHT22;6444;49.742;6.114;2023-08-17T06:18:44;23.00;99.90
12761;DHT22;6444;49.742;6.114;2023-08-17T06:21:11;23.10;99.90
12761;DHT22;6444;49.742;6.114;2023-08-17T06:23:38;23.20;99.90
12761;DHT22;6444;49.742;6.114;2023-08-17T06:26:05;23.10;99.90
12761;DHT22;6444;49.742;6.114;2023-08-17T06:28:32;23.40;99.90
12761;DHT22;6444;49.742;6.114;2023-08-17T06:30:58;23.40;99.90
12761;DHT22;6444;49.742;6.114;2023-08-17T06:33:25;23.70;99.90
12761;DHT22;6444;49.742;6.114;2023-08-17T06:35:52;24.10;99.90
12761;DHT22;6444;49.742;6.114;2023-08-17T06:38:18;24.30;99.90
12761;DHT22;6444;49.742;6.114;2023-08-17T06:40:45;24.60;99.90
12761;DHT22;6444;49.742;6.114;2023-08-17T06:43:12;24.50;99.90
12761;DHT22;6444;49.742;6.114;2023-08-17T06:45:38;24.50;99.90
12761;DHT22;6444;49.742;6.114;2023-08-17T06:48:05;24.50;99.90
12761;DHT22;6444;49.742;6.114;2023-08-17T06:50:32;24.40;99.90
12761;DHT22;6444;49.742;6.114;2023-08-17T06:53:00;24.30;99.90
12761;DHT22;6444;49.742;6.114;2023-08-17T06:55:26;23.40;99.90
12761;DHT22;6444;49.742;6.114;2023-08-17T06:57:52;22.80;99.90
12761;DHT22;6444;49.742;6.114;2023-08-17T07:00:19;22.90;99.90
12761;DHT22;6444;49.742;6.114;2023-08-17T07:02:46;22.90;99.90
12761;DHT22;6444;49.742;6.114;2023-08-17T07:05:13;23.20;99.90
12761;DHT22;6444;49.742;6.114;2023-08-17T07:07:39;23.80;99.90
12761;DHT22;6444;49.742;6.114;2023-08-17T07:10:05;24.40;99.90
12761;DHT22;6444;49.742;6.114;2023-08-17T07:12:32;24.00;99.90
12761;DHT22;6444;49.742;6.114;2023-08-17T07:14:59;23.90;99.90
12761;DHT22;6444;49.742;6.114;2023-08-17T07:17:25;23.80;99.90
12761;DHT22;6444;49.742;6.114;2023-08-17T07:19:52;23.70;99.90
12761;DHT22;6444;49.742;6.114;2023-08-17T07:22:19;24.10;99.90
12761;DHT22;6444;49.742;6.114;2023-08-17T07:24:45;24.00;99.90
12761;DHT22;6444;49.742;6.114;2023-08-17T07:27:12;23.90;99.90
12761;DHT22;6444;49.742;6.114;2023-08-17T07:29:38;23.30;99.90
12761;DHT22;6444;49.742;6.114;2023-08-17T07:32:05;23.30;99.90
12761;DHT22;6444;49.742;6.114;2023-08-17T07:34:32;23.30;99.90
12761;DHT22;6444;49.742;6.114;2023-08-17T07:36:59;23.40;99.90
12761;DHT22;6444;49.742;6.114;2023-08-17T07:39:26;23.30;99.90
12761;DHT22;6444;49.742;6.114;2023-08-17T07:41:52;23.40;99.90
12761;DHT22;6444;49.742;6.114;2023-08-17T07:44:19;23.70;99.90
12761;DHT22;6444;49.742;6.114;2023-08-17T07:46:46;23.40;99.90
12761;DHT22;6444;49.742;6.114;2023-08-17T07:49:13;23.40;99.90
12761;DHT22;6444;49.742;6.114;2023-08-17T07:51:40;23.60;99.90
12761;DHT22;6444;49.742;6.114;2023-08-17T07:54:06;23.80;99.90
12761;DHT22;6444;49.742;6.114;2023-08-17T07:56:33;24.00;99.90
12761;DHT22;6444;49.742;6.114;2023-08-17T07:59:00;24.10;99.90
12761;DHT22;6444;49.742;6.114;2023-08-17T08:01:26;24.70;99.90
12761;DHT22;6444;49.742;6.114;2023-08-17T08:03:53;24.70;99.90
12761;DHT22;6444;49.742;6.114;2023-08-17T08:06:19;25.20;99.90
12761;DHT22;6444;49.742;6.114;2023-08-17T08:08:46;25.40;99.90
12761;DHT22;6444;49.742;6.114;2023-08-17T08:11:13;25.70;99.90
12761;DHT22;6444;49.742;6.114;2023-08-17T08:13:39;25.20;99.90
12761;DHT22;6444;49.742;6.114;2023-08-17T08:16:06;25.70;99.90
12761;DHT22;6444;49.742;6.114;2023-08-17T08:18:33;25.60;99.90
12761;DHT22;6444;49.742;6.114;2023-08-17T08:21:00;24.70;99.90
12761;DHT22;6444;49.742;6.114;2023-08-17T08:23:27;24.70;99.90
12761;DHT22;6444;49.742;6.114;2023-08-17T08:25:53;23.80;99.90
12761;DHT22;6444;49.742;6.114;2023-08-17T08:28:21;23.10;99.90
12761;DHT22;6444;49.742;6.114;2023-08-17T08:30:47;23.00;99.90
12761;DHT22;6444;49.742;6.114;2023-08-17T08:33:17;23.10;99.90
12761;DHT22;6444;49.742;6.114;2023-08-17T08:35:40;23.90;99.90
12761;DHT22;6444;49.742;6.114;2023-08-17T08:38:07;24.50;99.90
12761;DHT22;6444;49.742;6.114;2023-08-17T08:40:34;25.20;99.90
12761;DHT22;6444;49.742;6.114;2023-08-17T08:43:00;25.00;99.90
12761;DHT22;6444;49.742;6.114;2023-08-17T08:45:27;24.80;99.90
12761;DHT22;6444;49.742;6.114;2023-08-17T08:49:32;25.90;99.90
12761;DHT22;6444;49.742;6.114;2023-08-17T08:51:58;27.40;99.90
12761;DHT22;6444;49.742;6.114;2023-08-17T08:54:25;26.80;99.90
12761;DHT22;6444;49.742;6.114;2023-08-17T08:56:54;26.50;99.90
12761;DHT22;6444;49.742;6.114;2023-08-17T08:59:18;26.20;99.90
12761;DHT22;6444;49.742;6.114;2023-08-17T09:01:46;26.00;99.90
12761;DHT22;6444;49.742;6.114;2023-08-17T09:04:12;25.90;99.90
12761;DHT22;6444;49.742;6.114;2023-08-17T09:06:39;26.10;99.90
12761;DHT22;6444;49.742;6.114;2023-08-17T09:09:06;25.90;99.90
12761;DHT22;6444;49.742;6.114;2023-08-17T09:11:32;25.70;99.90
12761;DHT22;6444;49.742;6.114;2023-08-17T09:14:00;25.90;99.90
12761;DHT22;6444;49.742;6.114;2023-08-17T09:16:27;25.80;99.90
12761;DHT22;6444;49.742;6.114;2023-08-17T09:18:53;25.60;99.90
12761;DHT22;6444;49.742;6.114;2023-08-17T09:21:23;25.60;99.90
12761;DHT22;6444;49.742;6.114;2023-08-17T09:23:55;25.70;99.90
12761;DHT22;6444;49.742;6.114;2023-08-17T09:26:22;24.80;99.90
12761;DHT22;6444;49.742;6.114;2023-08-17T09:28:48;24.90;99.90
12761;DHT22;6444;49.742;6.114;2023-08-17T09:31:15;25.10;99.90
12761;DHT22;6444;49.742;6.114;2023-08-17T09:33:41;25.70;99.90
12761;DHT22;6444;49.742;6.114;2023-08-17T09:36:09;25.90;99.90
12761;DHT22;6444;49.742;6.114;2023-08-17T09:38:35;26.40;99.90
12761;DHT22;6444;49.742;6.114;2023-08-17T09:41:01;26.20;99.90
12761;DHT22;6444;49.742;6.114;2023-08-17T09:43:28;26.50;99.90
12761;DHT22;6444;49.742;6.114;2023-08-17T09:45:54;26.30;99.90
12761;DHT22;6444;49.742;6.114;2023-08-17T09:48:21;26.20;99.90
12761;DHT22;6444;49.742;6.114;2023-08-17T09:50:48;25.50;99.90
12761;DHT22;6444;49.742;6.114;2023-08-17T09:53:18;25.60;99.90
12761;DHT22;6444;49.742;6.114;2023-08-17T09:55:41;25.50;99.90
12761;DHT22;6444;49.742;6.114;2023-08-17T09:58:08;25.20;99.90
12761;DHT22;6444;49.742;6.114;2023-08-17T10:00:34;24.90;99.90
12761;DHT22;6444;49.742;6.114;2023-08-17T10:03:04;25.50;99.90
12761;DHT22;6444;49.742;6.114;2023-08-17T10:05:33;25.60;99.90
12761;DHT22;6444;49.742;6.114;2023-08-17T10:07:58;25.50;99.90
12761;DHT22;6444;49.742;6.114;2023-08-17T10:10:25;25.40;99.90
12761;DHT22;6444;49.742;6.114;2023-08-17T10:15:27;26.10;99.90
12761;DHT22;6444;49.742;6.114;2023-08-17T10:17:55;26.40;99.90
12761;DHT22;6444;49.742;6.114;2023-08-17T10:20:21;27.40;99.90
12761;DHT22;6444;49.742;6.114;2023-08-17T10:22:58;27.30;99.90
12761;DHT22;6444;49.742;6.114;2023-08-17T10:25:23;28.70;99.90
12761;DHT22;6444;49.742;6.114;2023-08-17T10:27:49;29.20;99.90
12761;DHT22;6444;49.742;6.114;2023-08-17T10:30:16;27.60;99.90
12761;DHT22;6444;49.742;6.114;2023-08-17T10:32:42;27.00;99.90
12761;DHT22;6444;49.742;6.114;2023-08-17T10:35:09;27.90;99.90
12761;DHT22;6444;49.742;6.114;2023-08-17T10:37:39;28.30;99.90
12761;DHT22;6444;49.742;6.114;2023-08-17T10:40:05;27.70;99.90
12761;DHT22;6444;49.742;6.114;2023-08-17T10:42:33;27.10;99.90
12761;DHT22;6444;49.742;6.114;2023-08-17T10:44:59;26.90;99.90
12761;DHT22;6444;49.742;6.114;2023-08-17T10:47:26;26.40;99.90
12761;DHT22;6444;49.742;6.114;2023-08-17T10:49:59;25.20;99.90
12761;DHT22;6444;49.742;6.114;2023-08-17T10:52:29;25.20;99.90
12761;DHT22;6444;49.742;6.114;2023-08-17T10:54:55;25.60;99.90
12761;DHT22;6444;49.742;6.114;2023-08-17T11:00:20;29.20;99.90
12761;DHT22;6444;49.742;6.114;2023-08-17T11:02:56;29.10;99.90
12761;DHT22;6444;49.742;6.114;2023-08-17T11:05:42;30.10;99.90
12761;DHT22;6444;49.742;6.114;2023-08-17T11:08:11;30.00;99.90
12761;DHT22;6444;49.742;6.114;2023-08-17T11:10:37;29.20;99.90
12761;DHT22;6444;49.742;6.114;2023-08-17T11:13:04;29.10;99.90
12761;DHT22;6444;49.742;6.114;2023-08-17T11:15:37;28.80;99.90
12761;DHT22;6444;49.742;6.114;2023-08-17T11:18:06;28.60;99.90
12761;DHT22;6444;49.742;6.114;2023-08-17T11:20:32;29.70;99.90
12761;DHT22;6444;49.742;6.114;2023-08-17T11:22:59;31.50;99.90
12761;DHT22;6444;49.742;6.114;2023-08-17T11:25:26;31.00;99.90
12761;DHT22;6444;49.742;6.114;2023-08-17T11:27:52;30.40;99.90
12761;DHT22;6444;49.742;6.114;2023-08-17T11:30:20;29.80;99.90
12761;DHT22;6444;49.742;6.114;2023-08-17T11:32:45;30.10;99.90
12761;DHT22;6444;49.742;6.114;2023-08-17T11:35:12;30.70;99.90
12761;DHT22;6444;49.742;6.114;2023-08-17T11:37:39;31.10;99.90
12761;DHT22;6444;49.742;6.114;2023-08-17T11:40:06;32.50;99.90
12761;DHT22;6444;49.742;6.114;2023-08-17T11:42:33;32.40;99.90
12761;DHT22;6444;49.742;6.114;2023-08-17T11:44:59;33.30;99.90
12761;DHT22;6444;49.742;6.114;2023-08-17T11:47:26;31.90;99.90
12761;DHT22;6444;49.742;6.114;2023-08-17T11:49:58;31.40;99.90
12761;DHT22;6444;49.742;6.114;2023-08-17T11:52:19;31.70;99.90
12761;DHT22;6444;49.742;6.114;2023-08-17T11:54:46;31.40;99.90
12761;DHT22;6444;49.742;6.114;2023-08-17T11:57:13;31.80;99.90
12761;DHT22;6444;49.742;6.114;2023-08-17T11:59:39;32.50;99.90
12761;DHT22;6444;49.742;6.114;2023-08-17T12:02:06;32.30;99.90
12761;DHT22;6444;49.742;6.114;2023-08-17T12:04:33;31.20;99.90
12761;DHT22;6444;49.742;6.114;2023-08-17T12:07:00;31.20;99.90
12761;DHT22;6444;49.742;6.114;2023-08-17T12:09:26;31.60;99.90
12761;DHT22;6444;49.742;6.114;2023-08-17T12:11:59;32.40;99.90
12761;DHT22;6444;49.742;6.114;2023-08-17T12:14:26;33.80;99.90
12761;DHT22;6444;49.742;6.114;2023-08-17T12:16:52;33.70;99.90
12761;DHT22;6444;49.742;6.114;2023-08-17T12:19:19;33.40;99.90
12761;DHT22;6444;49.742;6.114;2023-08-17T12:21:49;33.40;99.90
12761;DHT22;6444;49.742;6.114;2023-08-17T12:24:13;33.30;99.90
12761;DHT22;6444;49.742;6.114;2023-08-17T12:26:43;33.40;99.90
12761;DHT22;6444;49.742;6.114;2023-08-17T12:29:10;31.70;99.90
12761;DHT22;6444;49.742;6.114;2023-08-17T12:31:36;31.60;99.90
12761;DHT22;6444;49.742;6.114;2023-08-17T12:34:03;32.90;99.90
12761;DHT22;6444;49.742;6.114;2023-08-17T12:36:30;33.50;99.90
12761;DHT22;6444;49.742;6.114;2023-08-17T12:38:56;34.70;99.90
12761;DHT22;6444;49.742;6.114;2023-08-17T12:41:24;33.70;99.90
12761;DHT22;6444;49.742;6.114;2023-08-17T12:43:50;33.60;99.90
12761;DHT22;6444;49.742;6.114;2023-08-17T12:46:17;32.10;99.90
12761;DHT22;6444;49.742;6.114;2023-08-17T12:48:44;30.60;99.90
12761;DHT22;6444;49.742;6.114;2023-08-17T12:51:10;29.80;99.90
12761;DHT22;6444;49.742;6.114;2023-08-17T12:53:38;30.30;99.90
12761;DHT22;6444;49.742;6.114;2023-08-17T12:56:05;30.30;99.90
12761;DHT22;6444;49.742;6.114;2023-08-17T12:58:32;30.20;99.90
12761;DHT22;6444;49.742;6.114;2023-08-17T13:00:58;30.90;99.90
12761;DHT22;6444;49.742;6.114;2023-08-17T13:03:25;31.10;99.90
12761;DHT22;6444;49.742;6.114;2023-08-17T13:05:51;30.50;99.90
12761;DHT22;6444;49.742;6.114;2023-08-17T13:08:18;30.90;99.90
12761;DHT22;6444;49.742;6.114;2023-08-17T13:10:45;31.00;99.90
12761;DHT22;6444;49.742;6.114;2023-08-17T13:13:12;31.00;99.90
12761;DHT22;6444;49.742;6.114;2023-08-17T13:15:39;30.40;99.90
12761;DHT22;6444;49.742;6.114;2023-08-17T13:18:05;30.10;99.90
12761;DHT22;6444;49.742;6.114;2023-08-17T13:20:32;29.10;99.90
12761;DHT22;6444;49.742;6.114;2023-08-17T13:22:59;28.50;99.90
12761;DHT22;6444;49.742;6.114;2023-08-17T13:25:25;28.60;99.90
12761;DHT22;6444;49.742;6.114;2023-08-17T13:27:52;28.60;99.90
12761;DHT22;6444;49.742;6.114;2023-08-17T13:30:19;28.20;99.90
12761;DHT22;6444;49.742;6.114;2023-08-17T13:32:45;28.30;99.90
12761;DHT22;6444;49.742;6.114;2023-08-17T13:35:12;28.80;99.90
12761;DHT22;6444;49.742;6.114;2023-08-17T13:37:38;29.20;99.90
12761;DHT22;6444;49.742;6.114;2023-08-17T13:40:05;29.10;99.90
12761;DHT22;6444;49.742;6.114;2023-08-17T13:42:32;28.80;99.90
12761;DHT22;6444;49.742;6.114;2023-08-17T13:44:58;28.70;99.90
12761;DHT22;6444;49.742;6.114;2023-08-17T13:47:25;28.90;99.90
12761;DHT22;6444;49.742;6.114;2023-08-17T13:49:52;29.00;99.90
12761;DHT22;6444;49.742;6.114;2023-08-17T13:52:19;28.40;99.90
12761;DHT22;6444;49.742;6.114;2023-08-17T13:54:46;28.40;99.90
12761;DHT22;6444;49.742;6.114;2023-08-17T13:57:12;28.20;99.90
12761;DHT22;6444;49.742;6.114;2023-08-17T13:59:39;28.30;99.90
12761;DHT22;6444;49.742;6.114;2023-08-17T14:02:06;28.30;99.90
12761;DHT22;6444;49.742;6.114;2023-08-17T14:04:32;28.40;99.90
12761;DHT22;6444;49.742;6.114;2023-08-17T14:06:59;28.30;99.90
12761;DHT22;6444;49.742;6.114;2023-08-17T14:09:25;28.60;99.90
12761;DHT22;6444;49.742;6.114;2023-08-17T14:11:52;29.00;99.90
12761;DHT22;6444;49.742;6.114;2023-08-17T14:14:19;28.90;99.90
12761;DHT22;6444;49.742;6.114;2023-08-17T14:16:45;29.10;99.90
12761;DHT22;6444;49.742;6.114;2023-08-17T14:19:12;29.40;99.90
12761;DHT22;6444;49.742;6.114;2023-08-17T14:21:39;29.60;99.90
12761;DHT22;6444;49.742;6.114;2023-08-17T14:24:05;29.20;99.90
12761;DHT22;6444;49.742;6.114;2023-08-17T14:26:32;29.40;99.90
12761;DHT22;6444;49.742;6.114;2023-08-17T14:28:59;29.90;99.90
12761;DHT22;6444;49.742;6.114;2023-08-17T14:31:25;30.00;99.90
12761;DHT22;6444;49.742;6.114;2023-08-17T14:33:52;29.60;99.90
12761;DHT22;6444;49.742;6.114;2023-08-17T14:36:18;29.30;99.90
12761;DHT22;6444;49.742;6.114;2023-08-17T14:38:45;29.10;99.90
12761;DHT22;6444;49.742;6.114;2023-08-17T14:41:12;28.90;99.90
12761;DHT22;6444;49.742;6.114;2023-08-17T14:43:38;28.70;99.90
12761;DHT22;6444;49.742;6.114;2023-08-17T14:46:06;28.00;99.90
12761;DHT22;6444;49.742;6.114;2023-08-17T14:48:32;27.90;99.90
12761;DHT22;6444;49.742;6.114;2023-08-17T14:50:59;27.90;99.90
12761;DHT22;6444;49.742;6.114;2023-08-17T14:53:26;27.60;99.90
12761;DHT22;6444;49.742;6.114;2023-08-17T14:55:52;28.00;99.90
12761;DHT22;6444;49.742;6.114;2023-08-17T14:58:20;28.40;99.90
12761;DHT22;6444;49.742;6.114;2023-08-17T15:00:46;28.60;99.90
12761;DHT22;6444;49.742;6.114;2023-08-17T15:03:13;28.50;99.90
12761;DHT22;6444;49.742;6.114;2023-08-17T15:05:39;28.80;99.90
12761;DHT22;6444;49.742;6.114;2023-08-17T15:08:06;28.70;99.90
12761;DHT22;6444;49.742;6.114;2023-08-17T15:10:33;28.80;99.90
12761;DHT22;6444;49.742;6.114;2023-08-17T15:13:00;27.90;99.90
12761;DHT22;6444;49.742;6.114;2023-08-17T15:15:27;27.80;99.90
12761;DHT22;6444;49.742;6.114;2023-08-17T15:17:54;28.00;99.90
12761;DHT22;6444;49.742;6.114;2023-08-17T15:20:20;28.50;99.90
12761;DHT22;6444;49.742;6.114;2023-08-17T15:22:47;28.80;99.90
12761;DHT22;6444;49.742;6.114;2023-08-17T15:25:13;28.70;99.90
12761;DHT22;6444;49.742;6.114;2023-08-17T15:27:40;28.20;99.90
12761;DHT22;6444;49.742;6.114;2023-08-17T15:30:08;28.00;99.90
12761;DHT22;6444;49.742;6.114;2023-08-17T15:32:34;27.90;99.90
12761;DHT22;6444;49.742;6.114;2023-08-17T15:35:01;27.70;99.90
12761;DHT22;6444;49.742;6.114;2023-08-17T15:37:28;27.80;99.90
12761;DHT22;6444;49.742;6.114;2023-08-17T15:39:54;28.10;99.90
12761;DHT22;6444;49.742;6.114;2023-08-17T15:42:21;28.40;99.90
12761;DHT22;6444;49.742;6.114;2023-08-17T15:44:47;28.70;99.90
12761;DHT22;6444;49.742;6.114;2023-08-17T15:47:14;28.90;99.90
12761;DHT22;6444;49.742;6.114;2023-08-17T15:49:41;28.50;99.90
12761;DHT22;6444;49.742;6.114;2023-08-17T15:52:07;28.10;99.90
12761;DHT22;6444;49.742;6.114;2023-08-17T15:54:34;28.30;99.90
12761;DHT22;6444;49.742;6.114;2023-08-17T15:57:01;28.20;99.90